createdAt,value
2022-08-12T04:18:13.866Z,38.75
2022-08-12T04:20:42.890Z,38.71
2022-08-12T04:23:16.787Z,38.72
2022-08-12T04:25:45.019Z,38.87
2022-08-12T04:28:14.095Z,38.89
2022-08-12T04:30:42.191Z,38.83
2022-08-12T04:33:10.625Z,38.80
2022-08-12T04:35:39.659Z,38.67
2022-08-12T04:38:08.503Z,38.75
2022-08-12T04:40:37.400Z,38.50
2022-08-12T04:43:07.016Z,38.88
2022-08-12T04:45:54.720Z,38.65
2022-08-12T04:48:22.468Z,39.25
2022-08-12T04:50:51.864Z,39.14
2022-08-12T04:53:19.921Z,39.59
2022-08-12T04:55:48.141Z,39.74
2022-08-12T04:58:15.789Z,39.62
2022-08-12T05:00:57.677Z,39.84
2022-08-12T05:03:26.500Z,39.86
2022-08-12T05:05:56.655Z,39.72
2022-08-12T05:08:25.553Z,39.85
2022-08-12T05:10:54.001Z,39.91
2022-08-12T05:13:24.326Z,40.01
2022-08-12T05:16:05.643Z,39.98
2022-08-12T05:18:39.505Z,39.79
2022-08-12T05:21:10.396Z,39.83
2022-08-12T05:23:39.331Z,40.11
2022-08-12T05:26:07.710Z,40.13
2022-08-12T05:28:35.916Z,40.07
2022-08-12T05:31:03.890Z,40.35
2022-08-12T05:33:38.393Z,40.02
2022-08-12T05:36:09.245Z,39.92
2022-08-12T05:38:54.956Z,39.89
2022-08-12T05:41:24.323Z,39.65
2022-08-12T05:43:53.214Z,39.64
2022-08-12T05:46:21.435Z,39.44
2022-08-12T05:48:51.194Z,39.55
2022-08-12T05:51:20.219Z,39.66
2022-08-12T05:53:48.301Z,39.79
2022-08-12T05:56:24.362Z,39.62
2022-08-12T05:58:52.657Z,39.70
2022-08-12T06:02:11.589Z,39.56
2022-08-12T06:04:09.680Z,39.72
2022-08-12T06:06:42.208Z,39.38
2022-08-12T06:09:11.356Z,39.75
2022-08-12T06:11:41.359Z,39.43
2022-08-12T06:14:27.672Z,39.56
2022-08-12T06:16:56.195Z,39.50
2022-08-12T06:19:25.146Z,39.64
2022-08-12T06:22:15.451Z,39.41
2022-08-12T06:24:43.109Z,39.24
2022-08-12T06:27:11.535Z,39.30
2022-08-12T06:30:07.544Z,39.12
2022-08-12T06:32:28.493Z,39.31
2022-08-12T06:35:27.128Z,39.09
2022-08-12T06:38:01.407Z,39.20
2022-08-12T06:40:45.971Z,39.24
2022-08-12T06:43:19.802Z,39.12
2022-08-12T06:45:49.432Z,39.22
2022-08-12T06:48:17.475Z,39.06
2022-08-12T06:50:46.042Z,39.37
2022-08-12T06:53:15.057Z,39.32
2022-08-12T06:55:57.807Z,39.48
2022-08-12T06:58:27.256Z,39.37
2022-08-12T07:00:55.965Z,39.36
2022-08-12T07:03:27.579Z,39.51
2022-08-12T07:05:56.532Z,39.15
2022-08-12T07:08:27.710Z,38.96
2022-08-12T07:10:59.178Z,39.24
2022-08-12T07:13:28.486Z,38.41
2022-08-12T07:15:56.815Z,38.28
2022-08-12T07:18:30.388Z,38.41
2022-08-12T07:20:58.248Z,38.15
2022-08-12T07:23:27.787Z,38.37
2022-08-12T07:25:58.481Z,37.75
2022-08-12T07:28:29.456Z,37.36
2022-08-12T07:30:58.739Z,36.08
2022-08-12T07:33:29.024Z,36.16
2022-08-12T07:35:59.843Z,36.19
2022-08-12T07:38:31.409Z,35.82
2022-08-12T07:41:05.677Z,35.67
2022-08-12T07:43:36.472Z,35.76
2022-08-12T07:46:08.132Z,35.50
2022-08-12T07:48:38.495Z,35.77
2022-08-12T07:51:06.731Z,35.84
2022-08-12T07:53:47.761Z,35.34
2022-08-12T07:56:28.213Z,35.29
2022-08-12T07:58:59.282Z,35.25
2022-08-12T08:01:28.154Z,35.34
2022-08-12T08:04:18.691Z,34.34
2022-08-12T08:06:47.976Z,34.02
2022-08-12T08:09:18.912Z,33.80
2022-08-12T08:12:03.951Z,33.57
2022-08-12T08:14:31.739Z,33.53
2022-08-12T08:17:03.320Z,33.28
2022-08-12T08:19:33.648Z,33.13
2022-08-12T08:29:52.536Z,32.81
2022-08-12T08:32:20.176Z,33.03
2022-08-12T08:34:54.200Z,32.79
2022-08-12T08:37:22.309Z,32.88
2022-08-12T08:39:51.137Z,32.15
2022-08-12T08:42:36.242Z,31.41
2022-08-12T08:45:12.906Z,31.33
2022-08-12T08:47:44.661Z,30.59
2022-08-12T08:50:15.238Z,30.83
2022-08-12T08:52:43.498Z,30.92
2022-08-12T08:55:14.005Z,30.34
2022-08-12T08:57:44.729Z,30.11
2022-08-12T09:00:19.673Z,29.99
2022-08-12T09:02:59.430Z,29.51
2022-08-12T09:05:28.149Z,29.16
2022-08-12T09:08:15.434Z,28.64
2022-08-12T09:10:50.706Z,29.20
2022-08-12T09:14:11.976Z,29.03
2022-08-12T09:19:05.743Z,29.11
2022-08-12T09:21:54.563Z,28.67
2022-08-12T09:24:21.495Z,28.81
2022-08-12T09:26:50.409Z,28.62
2022-08-12T09:30:10.346Z,28.66
2022-08-12T09:32:57.149Z,28.85
2022-08-12T09:34:58.395Z,28.39
2022-08-12T09:37:26.706Z,27.59
2022-08-12T09:40:05.580Z,28.07
2022-08-12T09:43:18.023Z,27.34
2022-08-12T09:46:06.693Z,27.17
2022-08-12T09:48:39.388Z,27.43
2022-08-12T09:51:17.179Z,26.82
2022-08-12T09:54:09.167Z,26.95
2022-08-12T09:57:00.873Z,26.20
2022-08-12T10:00:16.689Z,26.33
2022-08-12T10:02:45.732Z,26.77
2022-08-12T10:05:03.338Z,27.27
2022-08-12T10:07:39.736Z,27.25
2022-08-12T10:10:23.867Z,27.48
2022-08-12T10:13:12.643Z,26.51
2022-08-12T10:16:02.430Z,26.97
2022-08-12T10:18:35.214Z,26.43
2022-08-12T10:21:08.427Z,26.20
2022-08-12T10:23:40.288Z,26.96
2022-08-12T10:26:36.607Z,27.12
2022-08-12T10:30:03.474Z,26.30
2022-08-12T10:32:21.783Z,26.22
2022-08-12T10:34:53.726Z,26.13
2022-08-12T10:38:36.299Z,25.63
2022-08-12T10:40:19.696Z,26.04
2022-08-12T10:43:06.451Z,25.31
2022-08-12T10:45:38.502Z,25.26
2022-08-12T10:48:20.185Z,24.89
2022-08-12T10:51:01.903Z,24.86
2022-08-12T10:53:45.908Z,25.02
2022-08-12T10:56:15.454Z,25.09
2022-08-12T10:58:46.247Z,25.43
2022-08-12T11:01:50.182Z,25.40
2022-08-12T11:04:22.962Z,25.10
2022-08-12T11:07:02.963Z,25.02
2022-08-12T11:09:41.686Z,25.74
2022-08-12T11:12:56.421Z,25.14
2022-08-12T11:15:20.548Z,24.69
2022-08-12T11:17:55.621Z,24.92
2022-08-12T11:20:29.007Z,24.48
2022-08-12T11:22:59.872Z,24.82
2022-08-12T11:25:57.278Z,24.78
2022-08-12T11:28:34.203Z,24.13
2022-08-12T11:31:12.237Z,23.40
2022-08-12T11:34:05.996Z,23.48
2022-08-12T11:36:30.627Z,24.26
2022-08-12T11:39:04.262Z,23.73
2022-08-12T11:41:35.824Z,23.77
2022-08-12T11:44:35.359Z,23.32
2022-08-12T11:46:54.483Z,23.74
2022-08-12T11:49:32.254Z,23.35
2022-08-12T11:52:02.367Z,23.28
2022-08-12T11:54:30.490Z,23.33
2022-08-12T11:57:02.507Z,23.18
2022-08-12T12:02:20.690Z,22.87
2022-08-12T12:04:52.606Z,23.42
2022-08-12T12:07:22.367Z,23.33
2022-08-12T12:09:53.300Z,23.45
2022-08-12T12:12:25.124Z,23.45
2022-08-12T12:14:54.776Z,24.16
2022-08-12T12:17:24.043Z,23.99
